Time;durP1;ratioP1;P1;durP2;ratioP2;P2;SDS_P1;SDS_P2;PMS_P1;PMS_P2;Temp;Humidity;BMP_temperature;BMP_pressure;BME280_temperature;BME280_humidity;BME280_pressure;Samples;Min_cycle;Max_cycle;Signal;HPM_P1;HPM_P2
2023/04/17 00:01:36;;;;;;;32.13;13.98;;;9.30;99.90;;;;;;5059502;28;20424;-36
2023/04/17 00:04:02;;;;;;;36.30;13.88;;;9.30;99.90;;;;;;5053903;28;20037;-38
2023/04/17 00:06:28;;;;;;;33.33;13.13;;;9.30;99.90;;;;;;5054122;28;20060;-37
2023/04/17 00:08:54;;;;;;;31.13;12.95;;;9.30;99.90;;;;;;5054344;28;20025;-38
2023/04/17 00:11:20;;;;;;;30.75;13.65;;;9.30;99.90;;;;;;5060527;28;20035;-41
2023/04/17 00:13:46;;;;;;;36.28;12.75;;;9.40;99.90;;;;;;5073535;28;20032;-35
2023/04/17 00:16:12;;;;;;;30.08;13.00;;;9.30;99.90;;;;;;5074020;28;20024;-38
2023/04/17 00:18:38;;;;;;;34.75;13.23;;;9.30;99.90;;;;;;5072741;28;20473;-37
2023/04/17 00:21:04;;;;;;;29.13;12.38;;;9.20;99.90;;;;;;5066643;28;20497;-38
2023/04/17 00:23:30;;;;;;;30.88;12.40;;;9.20;99.90;;;;;;5062239;28;20210;-37
2023/04/17 00:25:56;;;;;;;26.75;11.88;;;9.20;99.90;;;;;;5073670;28;20119;-39
2023/04/17 00:28:22;;;;;;;28.45;11.68;;;9.20;99.90;;;;;;5065909;28;20029;-38
2023/04/17 00:30:47;;;;;;;32.22;11.57;;;9.20;99.90;;;;;;5073661;28;20024;-38
2023/04/17 00:33:13;;;;;;;34.80;12.98;;;9.20;99.90;;;;;;5073480;28;20028;-37
2023/04/17 00:35:38;;;;;;;30.10;12.43;;;9.20;99.90;;;;;;5072470;28;20036;-39
2023/04/17 00:38:04;;;;;;;30.65;13.00;;;9.20;99.90;;;;;;5073438;28;20389;-38
2023/04/17 00:40:30;;;;;;;28.00;13.45;;;9.30;99.90;;;;;;5069105;28;20421;-36
2023/04/17 00:43:00;;;;;;;31.10;12.85;;;9.30;99.90;;;;;;5073267;28;20028;-37
2023/04/17 00:45:26;;;;;;;33.03;13.38;;;9.20;99.90;;;;;;5072622;28;20563;-41
2023/04/17 00:47:52;;;;;;;26.38;11.70;;;9.20;99.90;;;;;;5071752;28;20028;-38
2023/04/17 00:50:18;;;;;;;31.50;12.02;;;9.20;99.90;;;;;;5070419;28;20477;-34
2023/04/17 00:52:45;;;;;;;34.08;13.48;;;9.10;99.90;;;;;;5057019;28;20033;-38
2023/04/17 00:55:12;;;;;;;36.97;13.70;;;9.20;99.90;;;;;;5056579;28;20474;-36
2023/04/17 00:57:38;;;;;;;40.28;13.30;;;9.20;99.90;;;;;;5058971;28;20020;-32
2023/04/17 01:00:07;;;;;;;31.38;13.05;;;9.10;99.90;;;;;;5062819;28;20043;-42
2023/04/17 01:02:32;;;;;;;27.98;12.68;;;9.10;99.90;;;;;;5063261;28;20025;-38
2023/04/17 01:04:58;;;;;;;27.70;13.02;;;9.10;99.90;;;;;;5062380;28;20504;-37
2023/04/17 01:07:24;;;;;;;31.58;14.05;;;9.10;99.90;;;;;;5062235;28;20410;-34
2023/04/17 01:09:50;;;;;;;30.38;12.93;;;9.10;99.90;;;;;;5070510;28;20032;-38
2023/04/17 01:12:20;;;;;;;39.20;13.73;;;9.10;99.90;;;;;;5072763;28;20024;-41
2023/04/17 01:14:46;;;;;;;30.27;12.52;;;9.10;99.90;;;;;;5066302;28;20039;-38
2023/04/17 01:17:14;;;;;;;28.98;12.57;;;9.00;99.90;;;;;;5066840;28;20521;-40
2023/04/17 01:19:41;;;;;;;29.98;12.85;;;9.00;99.90;;;;;;5071791;28;20036;-39
2023/04/17 01:22:07;;;;;;;29.23;12.65;;;9.00;99.90;;;;;;5071507;28;20032;-39
2023/04/17 01:24:33;;;;;;;25.52;12.38;;;8.90;99.90;;;;;;5072669;28;20090;-34
2023/04/17 01:26:58;;;;;;;24.85;11.90;;;8.90;99.90;;;;;;5071753;28;20033;-36
2023/04/17 01:29:24;;;;;;;27.25;12.27;;;9.00;99.90;;;;;;5073775;28;20530;-38
2023/04/17 01:31:49;;;;;;;25.42;11.98;;;9.00;99.90;;;;;;5054072;28;20029;-39
2023/04/17 01:34:15;;;;;;;29.63;12.15;;;8.90;99.90;;;;;;5072187;28;20028;-38
2023/04/17 01:36:41;;;;;;;27.45;12.27;;;8.90;99.90;;;;;;5056923;28;20481;-39
2023/04/17 01:39:07;;;;;;;23.85;12.10;;;8.90;99.90;;;;;;5052821;28;20374;-39
2023/04/17 01:41:33;;;;;;;26.50;12.00;;;8.90;99.90;;;;;;5051197;28;20143;-35
2023/04/17 01:43:58;;;;;;;22.73;11.77;;;8.90;99.90;;;;;;5067769;28;20032;-37
2023/04/17 01:46:24;;;;;;;25.70;11.93;;;9.00;99.90;;;;;;5064880;28;20017;-37
2023/04/17 01:48:50;;;;;;;27.60;12.82;;;9.00;99.90;;;;;;5071365;28;20547;-39
2023/04/17 01:51:16;;;;;;;30.65;11.20;;;8.90;99.90;;;;;;5071979;28;20499;-38
2023/04/17 01:53:41;;;;;;;25.55;11.25;;;8.90;99.90;;;;;;5066181;28;20025;-44
2023/04/17 01:56:07;;;;;;;21.50;11.32;;;9.00;99.90;;;;;;5062985;28;20032;-45
2023/04/17 01:58:33;;;;;;;27.33;11.30;;;9.00;99.90;;;;;;5061304;28;20417;-44
2023/04/17 02:00:59;;;;;;;24.02;11.00;;;9.00;99.90;;;;;;5054220;28;20025;-47
2023/04/17 02:03:25;;;;;;;26.80;12.05;;;9.00;99.90;;;;;;5052169;28;20454;-47
2023/04/17 02:05:52;;;;;;;22.10;10.85;;;9.00;99.90;;;;;;5051896;28;20056;-48
2023/04/17 02:08:18;;;;;;;21.02;10.98;;;9.00;99.90;;;;;;5055623;28;20058;-48
2023/04/17 02:10:44;;;;;;;23.60;11.82;;;9.00;99.90;;;;;;5057862;28;20012;-45
2023/04/17 02:13:10;;;;;;;20.95;10.73;;;9.00;99.90;;;;;;5059942;28;20029;-43
2023/04/17 02:15:38;;;;;;;19.73;10.90;;;9.00;99.90;;;;;;5062624;28;20031;-47
2023/04/17 02:18:05;;;;;;;23.65;11.95;;;9.00;99.90;;;;;;5056140;28;20031;-47
2023/04/17 02:20:31;;;;;;;26.85;10.73;;;9.10;99.90;;;;;;5056057;28;20110;-48
2023/04/17 02:23:01;;;;;;;26.83;12.02;;;9.10;99.90;;;;;;5076096;28;20481;-49
2023/04/17 02:25:27;;;;;;;29.17;12.18;;;9.10;99.90;;;;;;5075110;28;20465;-48
2023/04/17 02:27:53;;;;;;;29.00;12.00;;;9.10;99.90;;;;;;5074876;28;20112;-50
2023/04/17 02:30:19;;;;;;;20.10;10.18;;;9.10;99.90;;;;;;5062791;28;20032;-47
2023/04/17 02:32:45;;;;;;;24.70;11.05;;;9.20;99.90;;;;;;5056167;28;20489;-49
2023/04/17 02:35:11;;;;;;;21.08;10.13;;;9.20;99.90;;;;;;5064591;28;20530;-49
2023/04/17 02:37:36;;;;;;;20.90;9.70;;;9.20;99.90;;;;;;5075523;28;20085;-40
2023/04/17 02:40:06;;;;;;;22.20;9.68;;;9.20;99.90;;;;;;5075577;28;20028;-44
2023/04/17 02:42:32;;;;;;;16.35;8.82;;;9.20;99.90;;;;;;5075662;28;20468;-45
2023/04/17 02:44:57;;;;;;;18.67;9.23;;;9.20;99.90;;;;;;5060838;28;20023;-45
2023/04/17 02:47:23;;;;;;;19.33;8.93;;;9.20;99.90;;;;;;5055674;28;20048;-49
2023/04/17 02:49:49;;;;;;;22.67;8.80;;;9.10;99.90;;;;;;5055620;28;20021;-46
2023/04/17 02:52:15;;;;;;;20.48;9.02;;;9.10;99.90;;;;;;5055564;28;20032;-46
2023/04/17 02:54:41;;;;;;;19.95;9.75;;;9.00;99.90;;;;;;5055726;28;20029;-41
2023/04/17 02:57:06;;;;;;;14.93;8.02;;;9.00;99.90;;;;;;5070190;28;20028;-48
2023/04/17 02:59:32;;;;;;;18.38;9.68;;;9.00;99.90;;;;;;5072237;28;20373;-44
2023/04/17 03:02:00;;;;;;;19.80;8.98;;;9.00;99.90;;;;;;5075373;28;20020;-47
2023/04/17 03:04:29;;;;;;;19.58;9.60;;;9.00;99.90;;;;;;5073856;28;20481;-45
2023/04/17 03:06:55;;;;;;;21.27;9.88;;;8.90;99.90;;;;;;5075400;28;20028;-42
2023/04/17 03:09:21;;;;;;;21.00;9.60;;;8.90;99.90;;;;;;5075323;28;20047;-45
2023/04/17 03:11:47;;;;;;;21.63;10.57;;;8.90;99.90;;;;;;5055907;28;20489;-48
2023/04/17 03:14:13;;;;;;;24.45;9.63;;;8.90;99.90;;;;;;5059442;28;20500;-43
2023/04/17 03:16:39;;;;;;;18.92;9.35;;;8.90;99.90;;;;;;5056121;28;20029;-46
2023/04/17 03:19:04;;;;;;;19.83;8.93;;;9.00;99.90;;;;;;5055276;28;20114;-44
2023/04/17 03:21:30;;;;;;;23.50;9.82;;;9.00;99.90;;;;;;5068893;28;20039;-40
2023/04/17 03:23:56;;;;;;;20.15;9.30;;;9.10;99.90;;;;;;5074116;28;20033;-44
2023/04/17 03:26:22;;;;;;;26.60;9.68;;;9.10;99.90;;;;;;5073296;28;20031;-46
2023/04/17 03:28:47;;;;;;;18.33;8.32;;;9.10;99.90;;;;;;5074165;28;20051;-39
2023/04/17 03:31:13;;;;;;;22.30;10.70;;;9.10;99.90;;;;;;5054798;28;20028;-51
2023/04/17 03:33:39;;;;;;;23.23;10.45;;;9.10;99.90;;;;;;5067518;28;20546;-47
2023/04/17 03:36:06;;;;;;;20.00;10.20;;;9.10;99.90;;;;;;5073394;28;20470;-35
2023/04/17 03:38:32;;;;;;;20.75;10.63;;;9.10;99.90;;;;;;5073891;28;20469;-40
2023/04/17 03:40:58;;;;;;;22.88;11.45;;;9.00;99.90;;;;;;5056264;28;20029;-36
2023/04/17 03:43:23;;;;;;;24.05;11.65;;;9.00;99.90;;;;;;5055173;28;20553;-37
2023/04/17 03:45:49;;;;;;;19.42;10.52;;;9.10;99.90;;;;;;5065457;28;20100;-40
2023/04/17 03:48:15;;;;;;;27.48;11.50;;;9.10;99.90;;;;;;5054304;28;20428;-40
2023/04/17 03:50:40;;;;;;;24.17;10.55;;;9.00;99.90;;;;;;5053012;28;20143;-40
2023/04/17 03:53:06;;;;;;;28.05;11.60;;;9.00;99.90;;;;;;5054615;28;20021;-43
2023/04/17 03:55:32;;;;;;;27.38;12.02;;;9.00;99.90;;;;;;5054097;28;20521;-40
2023/04/17 03:57:57;;;;;;;26.38;12.50;;;9.00;99.90;;;;;;5054352;28;20028;-38
2023/04/17 04:00:23;;;;;;;23.10;11.05;;;9.10;99.90;;;;;;5063800;28;20032;-38
2023/04/17 04:02:49;;;;;;;31.92;13.93;;;9.00;99.90;;;;;;5066042;28;20085;-39
2023/04/17 04:05:15;;;;;;;22.17;11.70;;;9.10;99.90;;;;;;5073398;28;20493;-38
2023/04/17 04:07:41;;;;;;;26.08;12.32;;;9.00;99.90;;;;;;5074126;28;20106;-39
2023/04/17 04:10:07;;;;;;;31.13;13.35;;;9.00;99.90;;;;;;5071704;28;20020;-37
2023/04/17 04:12:32;;;;;;;34.30;13.40;;;9.00;99.90;;;;;;5074044;28;20025;-40
2023/04/17 04:14:58;;;;;;;24.45;11.65;;;9.00;99.90;;;;;;5073077;28;20457;-41
2023/04/17 04:17:23;;;;;;;31.50;13.10;;;9.00;99.90;;;;;;5058170;28;20025;-39
2023/04/17 04:19:49;;;;;;;31.08;14.13;;;8.90;99.90;;;;;;5057758;28;20032;-42
2023/04/17 04:22:15;;;;;;;34.13;13.70;;;9.00;99.90;;;;;;5071462;28;20023;-39
2023/04/17 04:24:41;;;;;;;33.15;13.60;;;9.10;99.90;;;;;;5053753;28;20025;-40
2023/04/17 04:27:08;;;;;;;28.25;13.23;;;9.00;99.90;;;;;;5053646;28;20032;-38
2023/04/17 04:29:36;;;;;;;30.38;13.45;;;8.90;99.90;;;;;;5058169;28;20457;-39
2023/04/17 04:32:02;;;;;;;34.15;13.02;;;8.90;99.90;;;;;;5062274;28;20112;-41
2023/04/17 04:34:28;;;;;;;30.40;13.18;;;8.90;99.90;;;;;;5053676;28;20462;-41
2023/04/17 04:36:55;;;;;;;36.03;13.73;;;8.90;99.90;;;;;;5053556;28;20474;-39
2023/04/17 04:39:21;;;;;;;29.23;13.90;;;8.90;99.90;;;;;;5057596;28;20017;-41
2023/04/17 04:41:48;;;;;;;25.52;12.48;;;9.00;99.90;;;;;;5073130;28;20028;-39
2023/04/17 04:44:15;;;;;;;32.28;13.88;;;9.00;99.90;;;;;;5070422;28;20020;-45
2023/04/17 04:46:40;;;;;;;27.55;13.02;;;9.00;99.90;;;;;;5067173;28;20060;-46
2023/04/17 04:49:06;;;;;;;27.50;12.85;;;9.00;99.90;;;;;;5055662;28;20045;-47
2023/04/17 04:51:33;;;;;;;26.98;12.48;;;8.90;99.90;;;;;;5073387;28;20023;-46
2023/04/17 04:53:58;;;;;;;33.40;12.77;;;9.00;99.90;;;;;;5059858;28;20029;-46
2023/04/17 04:56:24;;;;;;;29.88;13.45;;;8.90;99.90;;;;;;5053264;28;20025;-45
2023/04/17 04:58:50;;;;;;;33.53;14.75;;;8.90;99.90;;;;;;5061769;28;20101;-43
2023/04/17 05:01:17;;;;;;;30.60;12.85;;;9.00;99.90;;;;;;5070594;28;20035;-43
2023/04/17 05:03:46;;;;;;;25.43;12.33;;;9.00;99.90;;;;;;5053478;28;20123;-36
2023/04/17 05:06:12;;;;;;;32.25;13.57;;;9.10;99.90;;;;;;5052962;28;20333;-49
2023/04/17 05:08:41;;;;;;;30.52;13.63;;;9.00;99.90;;;;;;5052922;28;20539;-50
2023/04/17 05:11:07;;;;;;;28.35;13.65;;;9.00;99.90;;;;;;5064437;28;20029;-48
2023/04/17 05:13:33;;;;;;;38.50;14.88;;;9.10;99.90;;;;;;5071727;28;20108;-47
2023/04/17 05:15:59;;;;;;;30.52;14.45;;;9.10;99.90;;;;;;5069153;28;20041;-49
2023/04/17 05:18:25;;;;;;;32.75;13.98;;;9.10;99.90;;;;;;5068044;28;20048;-48
2023/04/17 05:20:51;;;;;;;28.88;14.35;;;9.10;99.90;;;;;;5073144;28;20131;-49
2023/04/17 05:23:20;;;;;;;30.25;13.75;;;9.10;99.90;;;;;;5068888;28;20033;-46
2023/04/17 05:25:46;;;;;;;33.75;13.55;;;9.10;99.90;;;;;;5072602;28;20472;-45
2023/04/17 05:28:11;;;;;;;33.20;14.00;;;9.10;99.90;;;;;;5071677;28;20094;-48
2023/04/17 05:30:37;;;;;;;32.67;14.00;;;9.10;99.90;;;;;;5071222;28;20020;-46
2023/04/17 05:33:03;;;;;;;33.78;14.65;;;9.10;99.90;;;;;;5061530;28;20051;-47
2023/04/17 05:35:28;;;;;;;32.75;14.63;;;9.20;99.90;;;;;;5052728;28;20021;-45
2023/04/17 05:37:54;;;;;;;36.47;14.70;;;9.20;99.90;;;;;;5053547;28;20370;-48
2023/04/17 05:40:20;;;;;;;30.25;13.70;;;9.20;99.90;;;;;;5069614;28;20368;-46
2023/04/17 05:42:46;;;;;;;30.27;14.02;;;9.30;99.90;;;;;;5052569;28;20138;-44
2023/04/17 05:45:13;;;;;;;29.13;13.05;;;9.30;99.90;;;;;;5054114;28;20539;-46
2023/04/17 05:47:39;;;;;;;31.20;13.15;;;9.30;99.90;;;;;;5060900;28;20082;-47
2023/04/17 05:50:06;;;;;;;30.23;12.75;;;9.30;99.90;;;;;;5076364;28;20439;-37
2023/04/17 05:52:32;;;;;;;29.25;12.38;;;9.30;99.90;;;;;;5056278;28;20021;-48
2023/04/17 05:54:57;;;;;;;30.55;13.65;;;9.30;99.90;;;;;;5056512;28;20078;-42
2023/04/17 05:57:23;;;;;;;26.15;12.45;;;9.20;99.90;;;;;;5056461;28;20021;-45
2023/04/17 05:59:49;;;;;;;30.63;14.00;;;9.20;99.90;;;;;;5065515;28;20032;-46
2023/04/17 06:02:15;;;;;;;35.95;13.15;;;9.20;99.90;;;;;;5074205;28;20388;-45
2023/04/17 06:04:42;;;;;;;25.58;13.45;;;9.30;99.90;;;;;;5057157;28;20485;-46
2023/04/17 06:07:09;;;;;;;25.60;13.43;;;9.30;99.90;;;;;;5056470;28;20126;-46
2023/04/17 06:09:35;;;;;;;29.25;13.20;;;9.30;99.90;;;;;;5063776;28;20515;-48
2023/04/17 06:12:02;;;;;;;27.35;13.93;;;9.30;99.90;;;;;;5076564;28;20017;-44
2023/04/17 06:14:28;;;;;;;27.95;13.70;;;9.30;99.90;;;;;;5074907;28;20451;-44
2023/04/17 06:16:53;;;;;;;30.30;15.00;;;9.30;99.90;;;;;;5076277;28;20104;-46
2023/04/17 06:19:19;;;;;;;28.77;12.45;;;9.30;99.90;;;;;;5064973;28;20025;-49
2023/04/17 06:21:45;;;;;;;32.97;13.85;;;9.30;99.90;;;;;;5076143;28;20073;-43
2023/04/17 06:24:10;;;;;;;31.85;14.02;;;9.30;99.90;;;;;;5075068;28;20024;-46
2023/04/17 06:26:36;;;;;;;29.63;14.13;;;9.30;99.90;;;;;;5076074;28;20103;-45
2023/04/17 06:29:02;;;;;;;33.42;14.85;;;9.20;99.90;;;;;;5074865;28;20028;-47
2023/04/17 06:31:28;;;;;;;36.75;15.43;;;9.20;99.90;;;;;;5075717;28;20027;-46
2023/04/17 06:33:54;;;;;;;29.33;13.27;;;9.20;99.90;;;;;;5065752;28;20029;-47
2023/04/17 06:36:19;;;;;;;35.70;14.48;;;9.20;99.90;;;;;;5055864;28;20132;-49
2023/04/17 06:38:46;;;;;;;33.42;14.38;;;9.20;99.90;;;;;;5064551;28;20048;-48
2023/04/17 06:41:11;;;;;;;35.22;14.35;;;9.30;99.90;;;;;;5055670;28;20103;-45
2023/04/17 06:43:37;;;;;;;28.23;13.50;;;9.30;99.90;;;;;;5055399;28;20124;-48
2023/04/17 06:46:03;;;;;;;23.75;11.65;;;9.30;99.90;;;;;;5071900;28;20024;-49
2023/04/17 06:48:28;;;;;;;25.00;12.38;;;9.30;99.90;;;;;;5069883;28;20393;-47
2023/04/17 06:50:54;;;;;;;34.20;12.52;;;9.30;99.90;;;;;;5055475;28;20446;-49
2023/04/17 06:53:20;;;;;;;28.42;13.40;;;9.30;99.90;;;;;;5055424;28;20024;-45
2023/04/17 06:55:46;;;;;;;29.40;13.23;;;9.40;99.90;;;;;;5054954;28;20060;-47
2023/04/17 06:58:12;;;;;;;28.08;12.65;;;9.40;99.90;;;;;;5060796;28;20028;-47
2023/04/17 07:00:38;;;;;;;29.95;13.77;;;9.60;99.90;;;;;;5067290;28;20036;-36
2023/04/17 07:03:04;;;;;;;30.60;12.75;;;9.60;99.90;;;;;;5058346;28;20397;-45
2023/04/17 07:05:30;;;;;;;28.38;13.63;;;9.50;99.90;;;;;;5070824;28;20044;-44
2023/04/17 07:07:55;;;;;;;30.85;13.20;;;9.50;99.90;;;;;;5074063;28;20500;-47
2023/04/17 07:10:21;;;;;;;26.25;13.35;;;9.60;99.90;;;;;;5063765;28;20075;-44
2023/04/17 07:12:47;;;;;;;27.48;13.75;;;9.60;99.90;;;;;;5055356;28;20410;-45
2023/04/17 07:15:12;;;;;;;30.55;13.13;;;9.60;99.90;;;;;;5054931;28;20108;-46
2023/04/17 07:17:38;;;;;;;27.33;13.88;;;9.60;99.90;;;;;;5055745;28;20162;-43
2023/04/17 07:20:05;;;;;;;28.52;14.30;;;9.50;99.90;;;;;;5058889;28;20389;-48
2023/04/17 07:22:33;;;;;;;36.13;13.85;;;9.40;99.90;;;;;;5066959;28;20393;-48
2023/04/17 07:24:58;;;;;;;28.87;12.90;;;9.40;99.90;;;;;;5071596;28;20021;-46
2023/04/17 07:27:25;;;;;;;35.45;14.75;;;9.40;99.90;;;;;;5067505;28;20025;-47
2023/04/17 07:29:55;;;;;;;34.28;14.57;;;9.40;99.90;;;;;;5059785;28;20506;-45
2023/04/17 07:32:23;;;;;;;27.58;13.38;;;9.40;99.90;;;;;;5072337;28;20515;-45
2023/04/17 07:34:48;;;;;;;;;;;9.40;99.90;;;;;;5073976;28;20469;-45
2023/04/17 07:37:14;;;;;;;31.13;13.23;;;9.40;99.90;;;;;;5073638;28;19952;-44
2023/04/17 07:39:40;;;;;;;30.33;14.00;;;9.50;99.90;;;;;;5062005;28;20032;-48
2023/04/17 07:42:07;;;;;;;33.80;14.55;;;9.60;99.90;;;;;;5057907;28;20035;-44
2023/04/17 07:44:33;;;;;;;31.27;14.65;;;9.60;99.90;;;;;;5060938;28;20540;-45
2023/04/17 07:47:00;;;;;;;29.60;13.77;;;9.60;99.90;;;;;;5060307;28;20028;-47
2023/04/17 07:49:26;;;;;;;34.28;14.07;;;9.70;99.90;;;;;;5064526;28;20464;-46
2023/04/17 07:51:51;;;;;;;29.75;14.30;;;9.70;99.90;;;;;;5057608;28;20021;-51
2023/04/17 07:54:17;;;;;;;39.45;15.77;;;9.70;99.90;;;;;;5074163;28;20090;-46
2023/04/17 07:56:45;;;;;;;35.22;15.05;;;9.70;99.90;;;;;;5064110;28;20465;-44
2023/04/17 07:59:11;;;;;;;;;;;9.80;99.90;;;;;;5064708;28;20380;-42
2023/04/17 08:01:36;;;;;;;31.67;14.05;;;9.90;99.90;;;;;;5063962;28;19923;-42
2023/04/17 08:04:02;;;;;;;34.28;14.55;;;9.90;99.90;;;;;;5060396;28;20544;-46
2023/04/17 08:06:28;;;;;;;38.92;14.70;;;9.90;99.90;;;;;;5064516;28;20549;-44
2023/04/17 08:08:54;;;;;;;35.80;15.10;;;9.90;99.90;;;;;;5070989;28;20471;-44
2023/04/17 08:11:19;;;;;;;33.20;14.75;;;9.90;99.90;;;;;;5066924;28;20048;-45
2023/04/17 08:13:45;;;;;;;32.33;14.57;;;10.00;99.90;;;;;;5065518;28;20025;-45
2023/04/17 08:16:11;;;;;;;34.47;14.20;;;10.00;99.90;;;;;;5069248;28;20032;-43
2023/04/17 08:18:36;;;;;;;34.22;15.00;;;10.00;99.90;;;;;;5070802;28;20040;-48
2023/04/17 08:21:03;;;;;;;37.97;14.95;;;10.10;99.90;;;;;;5053210;28;20069;-50
2023/04/17 08:23:29;;;;;;;28.30;14.82;;;10.20;99.90;;;;;;5056437;28;20526;-46
2023/04/17 08:25:54;;;;;;;31.20;15.13;;;10.30;99.90;;;;;;5053883;28;20462;-44
2023/04/17 08:28:20;;;;;;;37.65;15.65;;;10.40;99.90;;;;;;5051936;28;20028;-50
2023/04/17 08:30:46;;;;;;;34.55;14.40;;;10.50;99.90;;;;;;5070465;28;20432;-50
2023/04/17 08:33:16;;;;;;;34.10;14.43;;;10.60;99.90;;;;;;5072912;28;20029;-49
2023/04/17 08:35:42;;;;;;;32.63;15.10;;;10.60;99.90;;;;;;5052672;28;20607;-48
2023/04/17 08:38:12;;;;;;;31.58;14.30;;;10.60;99.90;;;;;;5053870;28;20057;-45
2023/04/17 08:40:40;;;;;;;36.00;15.70;;;10.50;99.90;;;;;;5064894;28;20401;-47
2023/04/17 08:43:19;;;;;;;29.42;14.30;;;10.70;99.90;;;;;;5063812;28;20116;-45
2023/04/17 08:45:53;;;;;;;27.23;12.93;;;11.20;99.90;;;;;;5061550;28;20124;-46
2023/04/17 08:48:20;;;;;;;28.83;12.65;;;11.10;99.90;;;;;;5052484;28;20029;-50
2023/04/17 08:50:48;;;;;;;30.85;14.32;;;11.00;99.90;;;;;;5053169;28;20104;-44
2023/04/17 08:53:15;;;;;;;31.13;13.70;;;11.00;99.90;;;;;;5053175;28;20025;-47
2023/04/17 08:55:41;;;;;;;30.52;13.38;;;11.10;99.90;;;;;;5053357;28;20060;-43
2023/04/17 08:58:08;;;;;;;29.83;12.43;;;11.10;99.90;;;;;;5069245;28;20083;-45
2023/04/17 09:00:39;;;;;;;26.80;12.88;;;11.30;99.90;;;;;;5073230;28;20036;-42
2023/04/17 09:03:10;;;;;;;30.60;12.48;;;11.50;99.90;;;;;;5073292;28;20024;-45
2023/04/17 09:05:36;;;;;;;24.35;12.23;;;11.60;99.90;;;;;;5072577;28;20037;-46
2023/04/17 09:08:31;;;;;;;28.63;12.45;;;11.80;99.90;;;;;;5073128;28;20504;-44
2023/04/17 09:10:57;;;;;;;25.80;10.90;;;12.20;99.90;;;;;;5072610;28;20500;-41
2023/04/17 09:13:24;;;;;;;27.10;12.02;;;12.60;99.90;;;;;;5073040;28;20071;-44
2023/04/17 09:16:11;;;;;;;22.13;11.68;;;13.10;99.90;;;;;;5073317;28;20025;-45
2023/04/17 09:18:38;;;;;;;22.83;11.30;;;13.40;99.90;;;;;;5072791;28;20030;-44
2023/04/17 09:21:05;;;;;;;21.75;10.73;;;13.50;99.90;;;;;;5072983;28;20028;-45
2023/04/17 09:23:48;;;;;;;20.48;11.00;;;13.70;99.90;;;;;;5072832;28;20024;-43
2023/04/17 09:26:17;;;;;;;20.77;10.48;;;13.90;99.90;;;;;;5073069;28;20120;-45
2023/04/17 09:29:10;;;;;;;20.67;9.80;;;13.90;99.90;;;;;;5072643;28;20034;-48
2023/04/17 09:31:40;;;;;;;23.83;10.02;;;13.80;99.90;;;;;;5072950;28;20393;-51
2023/04/17 09:34:10;;;;;;;23.77;9.90;;;13.50;99.90;;;;;;5067087;28;20485;-46
2023/04/17 09:36:38;;;;;;;24.23;10.90;;;13.40;99.90;;;;;;5052800;28;20071;-47
2023/04/17 09:39:05;;;;;;;;;;;13.10;99.90;;;;;;5053057;28;20025;-46
2023/04/17 09:41:34;;;;;;;18.27;9.70;;;13.00;99.90;;;;;;5084951;28;19931;-44
2023/04/17 09:44:00;;;;;;;26.55;10.15;;;13.20;99.90;;;;;;5052521;28;20390;-40
2023/04/17 09:46:30;;;;;;;20.63;11.63;;;13.30;99.90;;;;;;5052426;28;20098;-47
2023/04/17 09:49:03;;;;;;;18.38;10.13;;;13.40;99.90;;;;;;5052534;28;20029;-49
2023/04/17 09:51:29;;;;;;;22.90;10.98;;;13.60;99.90;;;;;;5052692;28;20469;-43
2023/04/17 09:53:57;;;;;;;22.05;10.02;;;13.50;99.90;;;;;;5052228;28;20025;-45
2023/04/17 09:56:25;;;;;;;26.13;11.73;;;13.40;99.90;;;;;;5052671;28;20025;-48
2023/04/17 09:58:52;;;;;;;42.75;18.23;;;13.10;99.90;;;;;;5055717;28;20528;-45
2023/04/17 10:01:18;;;;;;;23.97;9.93;;;12.80;99.90;;;;;;5072543;28;20435;-48
2023/04/17 10:03:44;;;;;;;19.25;10.30;;;12.60;99.90;;;;;;5072690;28;20392;-40
2023/04/17 10:06:11;;;;;;;18.20;10.85;;;12.50;99.90;;;;;;5072332;28;20128;-34
2023/04/17 10:08:36;;;;;;;22.02;10.68;;;12.40;99.90;;;;;;5071625;28;20528;-46
2023/04/17 10:11:06;;;;;;;22.98;10.68;;;12.40;99.90;;;;;;5072735;28;20100;-44
2023/04/17 10:13:37;;;;;;;17.67;10.43;;;12.50;99.90;;;;;;5072348;28;20024;-44
2023/04/17 10:16:04;;;;;;;19.35;11.70;;;12.90;99.90;;;;;;5072326;28;20029;-49
2023/04/17 10:18:29;;;;;;;23.05;10.93;;;13.30;99.90;;;;;;5072601;28;20516;-48
2023/04/17 10:20:56;;;;;;;20.90;11.55;;;13.50;99.90;;;;;;5072349;28;20028;-43
2023/04/17 10:23:32;;;;;;;27.23;10.93;;;13.60;99.90;;;;;;5072286;28;20025;-46
2023/04/17 10:26:26;;;;;;;19.60;10.52;;;13.60;99.90;;;;;;5072302;28;20021;-44
2023/04/17 10:28:54;;;;;;;25.15;10.43;;;13.70;99.90;;;;;;5072117;28;20028;-49
2023/04/17 10:31:22;;;;;;;25.50;9.98;;;13.80;99.90;;;;;;5073927;28;20519;-41
2023/04/17 10:33:55;;;;;;;22.60;10.60;;;13.90;99.90;;;;;;5071052;28;20029;-45
2023/04/17 10:36:39;;;;;;;25.52;11.45;;;14.20;99.90;;;;;;5055834;28;20037;-46
2023/04/17 10:39:12;;;;;;;21.42;10.05;;;14.30;99.90;;;;;;5056155;28;20097;-43
2023/04/17 10:42:02;;;;;;;15.50;9.85;;;14.60;99.90;;;;;;5055835;28;20482;-47
2023/04/17 10:44:49;;;;;;;25.05;10.27;;;14.70;99.90;;;;;;5055533;28;20033;-45
2023/04/17 10:47:19;;;;;;;19.13;11.35;;;14.50;99.90;;;;;;5056060;28;20017;-45
2023/04/17 10:49:48;;;;;;;17.17;10.50;;;14.50;99.90;;;;;;5055798;28;20504;-48
2023/04/17 10:52:39;;;;;;;22.35;11.48;;;14.40;99.90;;;;;;5055476;28;20385;-48
2023/04/17 10:55:08;;;;;;;25.25;11.00;;;14.60;99.90;;;;;;5055898;28;20029;-49
2023/04/17 10:57:56;;;;;;;19.20;10.48;;;14.80;99.90;;;;;;5055409;28;20036;-48
2023/04/17 11:00:34;;;;;;;20.30;10.75;;;14.60;99.90;;;;;;5056725;28;20029;-44
2023/04/17 11:03:01;;;;;;;20.58;10.80;;;14.50;99.90;;;;;;5075510;28;20500;-45
2023/04/17 11:05:27;;;;;;;22.52;10.32;;;14.40;99.90;;;;;;5075307;28;20023;-45
2023/04/17 11:07:52;;;;;;;17.98;10.15;;;14.40;99.90;;;;;;5075212;28;20423;-44
2023/04/17 11:10:19;;;;;;;18.67;10.80;;;14.70;99.90;;;;;;5073920;28;20027;-43
2023/04/17 11:12:57;;;;;;;18.40;10.30;;;15.00;99.90;;;;;;5075177;28;20017;-45
2023/04/17 11:15:30;;;;;;;18.73;10.95;;;15.20;99.90;;;;;;5075771;28;20469;-48
2023/04/17 11:17:58;;;;;;;18.63;10.43;;;15.20;99.90;;;;;;5075367;28;20103;-49
2023/04/17 11:20:27;;;;;;;18.88;10.75;;;15.30;99.90;;;;;;5074953;28;20092;-48
2023/04/17 11:22:53;;;;;;;17.83;10.45;;;15.30;99.90;;;;;;5075190;28;20078;-46
2023/04/17 11:25:29;;;;;;;19.15;10.63;;;15.30;99.90;;;;;;5074938;28;20473;-49
2023/04/17 11:27:59;;;;;;;19.05;10.57;;;15.40;99.90;;;;;;5074948;28;20021;-44
2023/04/17 11:30:43;;;;;;;21.23;9.40;;;15.50;99.90;;;;;;5074754;28;20021;-44
2023/04/17 11:33:11;;;;;;;19.33;9.57;;;15.60;99.90;;;;;;5074907;28;20086;-44
2023/04/17 11:35:41;;;;;;;21.23;8.73;;;15.60;99.90;;;;;;5056547;28;20063;-45
2023/04/17 11:38:19;;;;;;;17.70;11.27;;;15.70;99.90;;;;;;5055041;28;20036;-48
2023/04/17 11:40:48;;;;;;;15.80;8.77;;;15.80;99.90;;;;;;5054903;28;20024;-49
2023/04/17 11:43:15;;;;;;;16.92;9.77;;;16.00;99.90;;;;;;5053714;28;20477;-47
2023/04/17 11:45:42;;;;;;;17.40;10.07;;;16.20;99.90;;;;;;5054706;28;20674;-47
2023/04/17 11:48:09;;;;;;;;;;;16.40;99.90;;;;;;5055326;28;20021;-49
2023/04/17 11:50:35;;;;;;;14.98;9.18;;;16.20;99.90;;;;;;5054579;28;20369;-45
2023/04/17 11:53:03;;;;;;;16.08;9.15;;;16.10;99.90;;;;;;5054546;28;20017;-51
2023/04/17 11:55:30;;;;;;;18.85;10.40;;;16.30;99.90;;;;;;5054371;28;20493;-47
2023/04/17 11:58:02;;;;;;;15.88;9.90;;;16.60;99.90;;;;;;5054450;28;20087;-45
2023/04/17 12:00:29;;;;;;;18.13;10.60;;;16.80;99.90;;;;;;5054641;28;20025;-41
2023/04/17 12:02:58;;;;;;;18.58;9.93;;;16.70;99.90;;;;;;5060684;28;20025;-48
2023/04/17 12:05:25;;;;;;;16.02;9.45;;;17.00;99.90;;;;;;5074078;28;20021;-50
2023/04/17 12:08:18;;;;;;;18.10;10.38;;;17.30;99.90;;;;;;5073958;28;20080;-44
2023/04/17 12:10:44;;;;;;;18.40;9.52;;;17.60;99.90;;;;;;5071076;28;20033;-46
2023/04/17 12:13:11;;;;;;;17.27;10.10;;;17.80;99.90;;;;;;5074081;28;20031;-47
2023/04/17 12:15:37;;;;;;;16.17;9.93;;;17.70;99.90;;;;;;5073878;28;20029;-44
2023/04/17 12:18:04;;;;;;;20.38;10.05;;;17.50;99.90;;;;;;5073600;28;20029;-43
2023/04/17 12:20:35;;;;;;;21.43;9.40;;;17.50;99.90;;;;;;5073806;28;20025;-42
2023/04/17 12:23:01;;;;;;;19.70;9.90;;;17.40;99.90;;;;;;5073757;28;20028;-43
2023/04/17 12:25:27;;;;;;;17.90;9.40;;;17.20;99.90;;;;;;5073966;28;20477;-43
2023/04/17 12:27:55;;;;;;;21.85;9.25;;;17.00;99.90;;;;;;5073751;28;20110;-44
2023/04/17 12:30:26;;;;;;;22.02;10.68;;;17.10;99.90;;;;;;5073643;28;20029;-44
2023/04/17 12:32:55;;;;;;;21.38;10.07;;;17.10;99.90;;;;;;5073741;28;20481;-46
2023/04/17 12:35:22;;;;;;;21.55;11.45;;;16.90;99.90;;;;;;5057249;28;20070;-45
2023/04/17 12:37:52;;;;;;;18.95;10.05;;;16.70;99.90;;;;;;5053769;28;20493;-43